Terminal Aerodrome Forecast
Issued by NWS Wilmington, OH

Current Version | Previous Version | Graphics & Text | Print | Product List | Glossary On
Versions: 1 2 3 4 5 6 7 8 9 10 11 12 13 14 15 16 17 18
429
FTUS41 KILN 220653 AAA
TAFCMH
TAF AMD
KCMH 220653Z 2207/2306 30012KT P6SM SCT025 OVC035
      TEMPO 2207/2208 SCT015 BKN025
     FM220900 32006KT P6SM SCT050
     FM221500 34010KT P6SM SCT050
     FM222300 VRB03KT P6SM SCT250=

USA.gov is the U.S. government's official web portal to all federal, state and local government web resources and services.